Time;durP1;ratioP1;P1;durP2;ratioP2;P2;SDS_P1;SDS_P2;PMS_P1;PMS_P2;Temp;Humidity;BMP_temperature;BMP_pressure;BME280_temperature;BME280_humidity;BME280_pressure;Samples;Min_cycle;Max_cycle;Signal;HPM_P1;HPM_P2
2022/12/25 00:01:20;;;;;;;5.00;2.20;;;;;;;19.74;52.42;97036.88;10337811;28;20050;-54
2022/12/25 00:06:39;;;;;;;7.40;3.20;;;;;;;19.72;52.05;97034.50;10350798;28;20051;-53
2022/12/25 00:11:59;;;;;;;13.30;5.28;;;;;;;19.38;47.37;97040.66;10336033;28;20061;-54
2022/12/25 00:17:18;;;;;;;21.60;7.78;;;;;;;19.43;48.45;97047.81;10336454;28;20069;-54
2022/12/25 00:22:38;;;;;;;18.80;7.32;;;;;;;19.48;49.43;97056.56;10346403;28;20046;-54
2022/12/25 00:27:57;;;;;;;18.90;6.72;;;;;;;19.52;49.70;97057.53;10335863;28;20066;-54
2022/12/25 00:33:17;;;;;;;12.60;5.65;;;;;;;19.53;49.65;97064.50;10336140;28;20058;-54
2022/12/25 00:38:38;;;;;;;15.82;4.97;;;;;;;19.53;49.81;97066.41;10337914;28;20085;-54
2022/12/25 00:43:57;;;;;;;11.48;4.60;;;;;;;19.53;49.84;97078.00;10325538;28;20073;-54
2022/12/25 00:49:17;;;;;;;12.38;4.70;;;;;;;19.52;49.88;97078.31;10335970;28;20058;-54
2022/12/25 00:54:36;;;;;;;11.35;4.47;;;;;;;19.52;50.06;97084.53;10348713;28;20049;-54
2022/12/25 00:59:56;;;;;;;8.90;4.15;;;;;;;19.51;50.13;97077.53;10334592;28;20085;-54
2022/12/25 01:05:15;;;;;;;9.88;3.72;;;;;;;19.50;50.27;97080.53;10334774;28;20088;-54
2022/12/25 01:10:34;;;;;;;8.48;3.60;;;;;;;19.50;50.30;97084.06;10321664;28;20050;-53
2022/12/25 01:15:54;;;;;;;9.07;3.55;;;;;;;19.48;50.41;97080.88;10347966;28;20411;-54
2022/12/25 01:21:15;;;;;;;7.90;3.30;;;;;;;19.47;50.50;97087.38;10329769;28;20051;-54
2022/12/25 01:26:34;;;;;;;6.75;3.40;;;;;;;19.46;50.53;97085.78;10322434;28;20058;-54
2022/12/25 01:31:54;;;;;;;6.78;3.28;;;;;;;19.45;50.51;97081.50;10333670;28;20495;-54
2022/12/25 01:37:13;;;;;;;7.18;2.88;;;;;;;19.45;50.57;97091.53;10334344;28;20130;-54
2022/12/25 01:42:32;;;;;;;7.47;3.15;;;;;;;19.43;50.70;97085.66;10346930;28;20054;-55
2022/12/25 01:47:52;;;;;;;6.07;2.75;;;;;;;19.42;50.74;97084.81;10333702;28;20055;-54
2022/12/25 01:53:12;;;;;;;5.93;2.95;;;;;;;19.41;50.74;97072.44;10336703;28;20061;-54
2022/12/25 01:58:32;;;;;;;5.85;2.85;;;;;;;19.39;50.87;97077.38;10333560;28;20125;-54
2022/12/25 02:03:55;;;;;;;5.57;2.90;;;;;;;19.39;50.83;97071.97;10333682;28;20065;-53
2022/12/25 02:09:15;;;;;;;5.80;2.75;;;;;;;19.38;50.75;97067.66;10332922;28;20054;-54
2022/12/25 02:14:36;;;;;;;5.15;2.97;;;;;;;19.37;50.88;97076.88;10332672;28;20438;-55
2022/12/25 02:20:29;;;;;;;5.38;2.67;;;;;;;19.36;50.86;97078.00;10331079;28;20507;-54
2022/12/25 02:26:17;;;;;;;5.38;2.50;;;;;;;19.34;50.86;97088.31;10326367;28;20517;-53
2022/12/25 02:32:05;;;;;;;5.90;2.63;;;;;;;19.33;50.92;97092.94;10299064;28;20046;-54
2022/12/25 02:37:37;;;;;;;4.65;2.72;;;;;;;19.32;50.93;97085.13;10285720;28;20066;-54
2022/12/25 03:11:45;;;;;;;5.93;2.10;;;;;;;19.24;51.01;97083.22;10308988;28;20051;-51
2022/12/25 03:17:04;;;;;;;4.80;2.40;;;;;;;19.23;51.13;97092.41;10291464;28;20419;-51
2022/12/25 03:28:06;;;;;;;4.38;2.20;;;;;;;19.21;51.06;97083.84;10286840;28;20054;-52
2022/12/25 03:33:37;;;;;;;4.13;2.03;;;;;;;19.20;51.11;97076.84;10298221;28;20118;-51
2022/12/25 04:36:10;;;;;;;2.87;2.00;;;;;;;19.05;51.29;97088.88;10336619;28;20059;-51
2022/12/25 04:41:30;;;;;;;3.45;1.55;;;;;;;19.06;51.27;97090.50;10326005;28;20289;-51
2022/12/25 04:46:49;;;;;;;2.70;1.70;;;;;;;19.05;51.30;97102.38;10335605;28;20058;-51
2022/12/25 04:52:08;;;;;;;2.22;1.60;;;;;;;19.03;51.35;97100.00;10335445;28;20050;-52
2022/12/25 04:57:28;;;;;;;2.58;1.80;;;;;;;19.01;51.43;97102.22;10328018;28;20129;-52
2022/12/25 05:02:47;;;;;;;3.10;1.73;;;;;;;19.01;51.42;97118.41;10335520;28;20070;-51
2022/12/25 05:08:06;;;;;;;2.95;1.90;;;;;;;19.00;51.37;97111.44;10335146;28;20063;-51
2022/12/25 05:13:26;;;;;;;2.38;1.70;;;;;;;18.99;51.42;97117.94;10334826;28;20074;-51
2022/12/25 05:18:50;;;;;;;1.83;1.45;;;;;;;18.98;51.34;97132.56;10329562;28;20456;-51
2022/12/25 05:24:10;;;;;;;3.92;1.60;;;;;;;18.95;51.44;97123.19;10317292;28;20058;-51
2022/12/25 05:29:29;;;;;;;2.80;1.63;;;;;;;18.96;51.29;97132.06;10334093;28;20062;-51
2022/12/25 05:34:49;;;;;;;3.53;1.85;;;;;;;18.94;51.39;97143.19;10333763;28;20058;-51
2022/12/25 05:40:09;;;;;;;2.25;1.42;;;;;;;18.94;51.33;97145.09;10333399;28;20065;-51
2022/12/25 05:45:29;;;;;;;2.60;1.67;;;;;;;18.92;51.30;97142.69;10332950;28;20075;-51
2022/12/25 05:50:49;;;;;;;3.17;1.90;;;;;;;18.90;51.35;97142.22;10321436;28;20116;-51
2022/12/25 05:56:09;;;;;;;2.28;1.48;;;;;;;18.90;51.38;97144.91;10333446;28;20138;-51
2022/12/25 06:01:28;;;;;;;2.50;1.55;;;;;;;18.89;51.30;97151.41;10346562;28;20054;-51
2022/12/25 06:06:47;;;;;;;2.30;1.40;;;;;;;18.89;51.27;97161.41;10332841;28;20073;-51
2022/12/25 06:12:08;;;;;;;2.97;1.45;;;;;;;18.87;51.35;97147.44;10325208;28;20054;-51
2022/12/25 06:17:27;;;;;;;2.17;1.40;;;;;;;18.87;51.34;97147.44;10284853;28;20062;-55
2022/12/25 06:22:47;;;;;;;2.10;1.50;;;;;;;18.84;51.29;97148.84;10298781;28;20061;-54
2022/12/25 06:28:06;;;;;;;1.90;1.50;;;;;;;18.84;51.40;97148.06;10318885;28;20055;-52
2022/12/25 06:33:25;;;;;;;1.80;1.30;;;;;;;18.81;51.41;97144.06;10308384;28;20055;-52
2022/12/25 06:38:45;;;;;;;1.73;1.30;;;;;;;18.81;51.32;97143.28;10292995;28;20054;-52
2022/12/25 06:44:05;;;;;;;1.85;1.42;;;;;;;18.80;51.30;97128.16;10295120;28;20055;-52
2022/12/25 06:49:24;;;;;;;2.55;1.63;;;;;;;18.78;51.49;97126.56;10307555;28;20051;-52
2022/12/25 06:54:45;;;;;;;2.25;1.50;;;;;;;18.78;51.50;97120.38;10313744;28;20499;-52
2022/12/25 07:00:05;;;;;;;1.77;1.30;;;;;;;18.77;51.42;97124.16;10305893;28;20055;-51
2022/12/25 07:05:25;;;;;;;2.80;1.50;;;;;;;18.75;51.46;97132.56;10317903;28;20069;-52
2022/12/25 07:10:44;;;;;;;1.55;1.30;;;;;;;18.75;51.52;97137.97;10297582;28;20113;-51
2022/12/25 07:16:06;;;;;;;1.67;1.30;;;;;;;18.74;51.51;97131.00;10335993;28;20108;-51
2022/12/25 07:21:26;;;;;;;1.63;1.23;;;;;;;18.74;51.49;97135.59;10337154;28;20065;-51
2022/12/25 07:26:45;;;;;;;2.28;1.10;;;;;;;18.73;51.51;97142.88;10337471;28;20526;-52
2022/12/25 07:32:05;;;;;;;2.17;1.35;;;;;;;18.75;51.56;97151.47;10352103;28;20126;-51
2022/12/25 07:37:25;;;;;;;1.90;1.33;;;;;;;18.75;51.75;97145.28;10338393;28;20058;-51
2022/12/25 07:42:44;;;;;;;3.03;1.20;;;;;;;18.76;51.84;97155.78;10344486;28;20477;-52
2022/12/25 07:48:04;;;;;;;2.35;1.42;;;;;;;18.78;51.88;97156.25;10334329;28;20058;-52
2022/12/25 07:53:24;;;;;;;1.65;1.17;;;;;;;18.79;52.14;97162.44;10333155;28;20058;-52
2022/12/25 07:58:45;;;;;;;1.92;1.10;;;;;;;18.83;52.30;97157.25;10327731;28;20458;-52
2022/12/25 08:04:04;;;;;;;1.63;1.20;;;;;;;18.82;52.33;97169.16;10337255;28;20058;-50
2022/12/25 08:09:24;;;;;;;1.58;1.10;;;;;;;18.86;52.37;97172.84;10337401;28;20101;-50
2022/12/25 08:14:43;;;;;;;1.35;0.95;;;;;;;18.86;52.38;97159.34;10336726;28;20058;-51
2022/12/25 08:20:03;;;;;;;1.63;1.52;;;;;;;18.88;52.45;97162.53;10337263;28;20054;-52
2022/12/25 08:25:22;;;;;;;3.50;1.30;;;;;;;18.91;52.40;97170.00;10324655;28;20557;-52
2022/12/25 08:30:41;;;;;;;1.63;1.23;;;;;;;18.93;52.65;97175.88;10336325;28;20498;-51
2022/12/25 08:36:03;;;;;;;3.80;1.33;;;;;;;18.95;52.79;97179.06;10336022;28;20059;-53
2022/12/25 08:41:23;;;;;;;1.48;1.15;;;;;;;18.97;52.77;97176.84;10336122;28;20054;-51
2022/12/25 08:46:43;;;;;;;1.30;1.20;;;;;;;19.00;52.73;97175.44;10322927;28;20057;-52
2022/12/25 08:52:02;;;;;;;1.65;1.50;;;;;;;19.01;52.85;97194.00;10336286;28;20061;-53
2022/12/25 08:57:21;;;;;;;1.25;1.08;;;;;;;19.05;52.91;97199.59;10327831;28;20410;-52
2022/12/25 09:02:40;;;;;;;1.30;1.20;;;;;;;19.06;52.97;97202.00;10309665;28;20057;-52
2022/12/25 09:08:00;;;;;;;2.33;1.40;;;;;;;19.08;52.98;97183.56;10334754;28;20112;-52
2022/12/25 09:13:20;;;;;;;2.10;1.52;;;;;;;19.11;53.03;97193.75;10318596;28;20109;-51
2022/12/25 09:18:40;;;;;;;2.63;1.42;;;;;;;19.14;53.19;97186.94;10320780;28;20050;-51
2022/12/25 09:23:59;;;;;;;3.30;1.40;;;;;;;19.18;53.38;97190.59;10303639;28;20051;-51
2022/12/25 09:29:18;;;;;;;1.30;1.20;;;;;;;19.21;53.64;97181.06;10294109;28;20046;-51
2022/12/25 09:34:38;;;;;;;2.20;1.50;;;;;;;19.24;53.72;97170.44;10302669;28;20062;-52
2022/12/25 09:39:57;;;;;;;2.38;1.70;;;;;;;19.27;53.61;97167.13;10302901;28;20062;-52
2022/12/25 09:45:22;;;;;;;2.83;1.77;;;;;;;19.30;53.46;97152.19;10322966;28;20061;-54
2022/12/25 09:50:49;;;;;;;2.35;2.05;;;;;;;19.33;53.37;97146.97;10327046;28;20104;-54
2022/12/25 09:56:12;;;;;;;3.28;1.83;;;;;;;19.35;53.23;97138.53;10333336;28;20069;-54
2022/12/25 10:01:47;;;;;;;2.25;1.67;;;;;;;19.37;53.17;97136.31;10326255;28;20050;-54
2022/12/25 10:07:38;;;;;;;3.63;1.90;;;;;;;19.40;53.10;97134.91;10331309;28;20054;-56
2022/12/25 10:13:08;;;;;;;3.67;1.85;;;;;;;19.42;53.24;97128.06;10322305;28;20055;-53
2022/12/25 10:18:36;;;;;;;3.38;1.83;;;;;;;19.45;53.21;97122.03;10316853;28;20070;-50
2022/12/25 10:24:15;;;;;;;4.25;1.85;;;;;;;19.49;53.30;97114.09;10329566;28;20422;-58
2022/12/25 10:29:37;;;;;;;;;;;;;;;19.51;53.60;97120.78;10329572;28;20054;-52
2022/12/25 10:34:57;;;;;;;3.40;1.48;;;;;;;19.52;53.27;97111.56;10290338;28;19926;-54
2022/12/25 10:40:22;;;;;;;2.95;1.90;;;;;;;19.54;53.35;97105.81;10309489;28;20062;-55
2022/12/25 10:45:44;;;;;;;2.55;1.55;;;;;;;19.55;53.49;97110.13;10300692;28;20082;-53
2022/12/25 10:51:03;;;;;;;2.80;1.80;;;;;;;19.56;53.54;97112.53;10312900;28;20055;-67
2022/12/25 10:56:23;;;;;;;5.35;1.67;;;;;;;19.58;53.51;97108.69;10299583;28;20054;-68
2022/12/25 11:01:42;;;;;;;4.78;1.80;;;;;;;19.60;53.58;97098.34;10331222;28;20051;-62
2022/12/25 11:07:04;;;;;;;2.15;1.40;;;;;;;19.60;53.65;97087.53;10336003;28;20061;-67
2022/12/25 11:12:34;;;;;;;2.67;1.40;;;;;;;19.60;53.73;97087.53;10324768;28;20051;-60
2022/12/25 11:17:53;;;;;;;1.98;1.38;;;;;;;19.60;53.75;97101.88;10287684;28;20059;-65
2022/12/25 11:23:19;;;;;;;3.03;1.45;;;;;;;19.62;53.80;97071.81;10284126;28;20113;-62
2022/12/25 11:28:40;;;;;;;3.28;1.50;;;;;;;19.63;54.04;97049.09;10259473;28;20066;-64
2022/12/25 11:34:06;;;;;;;2.00;1.30;;;;;;;19.62;54.12;97029.38;10267947;28;20055;-59
2022/12/25 11:39:31;;;;;;;2.90;1.50;;;;;;;19.63;54.09;97032.88;10262447;28;20047;-58
2022/12/25 11:45:07;;;;;;;2.65;1.30;;;;;;;19.65;54.34;97044.16;10318793;28;20055;-60
2022/12/25 11:50:48;;;;;;;2.63;1.42;;;;;;;19.65;53.70;97044.94;10296534;28;20464;-56
2022/12/25 11:56:10;;;;;;;2.40;1.40;;;;;;;19.64;52.59;97043.38;10311921;28;20411;-60
2022/12/25 12:01:42;;;;;;;3.45;1.70;;;;;;;19.64;50.66;97032.56;10318473;28;20495;-64
2022/12/25 12:07:16;;;;;;;4.55;1.90;;;;;;;19.65;49.76;97011.72;10295985;28;20062;-67
2022/12/25 12:12:44;;;;;;;4.20;2.20;;;;;;;19.63;48.83;97022.84;10309713;28;20063;-75
2022/12/25 12:18:14;;;;;;;3.70;2.03;;;;;;;19.64;47.81;97004.72;10349156;28;20057;-58
2022/12/25 12:23:48;;;;;;;3.40;2.15;;;;;;;19.64;48.35;97010.13;10330908;28;20054;-57
2022/12/25 12:29:22;;;;;;;8.48;3.22;;;;;;;19.62;48.57;97001.53;10317060;28;20058;-65
2022/12/25 12:34:46;;;;;;;8.93;3.72;;;;;;;19.60;49.11;97015.41;10289685;28;20054;-66
2022/12/25 12:40:24;;;;;;;12.15;4.30;;;;;;;19.60;49.36;96998.38;10328305;28;20054;-55
2022/12/25 12:45:44;;;;;;;12.03;3.67;;;;;;;19.60;49.76;96991.06;10311413;28;20051;-53
2022/12/25 12:51:07;;;;;;;9.70;3.83;;;;;;;19.60;50.29;96990.25;10334990;28;20051;-55
2022/12/25 12:56:26;;;;;;;8.45;4.13;;;;;;;19.61;50.57;96983.75;10313249;28;20058;-55
2022/12/25 13:02:26;;;;;;;8.30;3.47;;;;;;;19.61;50.85;96967.53;10332405;28;20415;-59
2022/12/25 13:08:04;;;;;;;10.85;3.15;;;;;;;19.60;50.40;96971.34;10320776;28;20070;-61
2022/12/25 13:13:29;;;;;;;7.17;2.60;;;;;;;19.60;49.81;96955.13;10310518;28;20510;-53
2022/12/25 13:18:50;;;;;;;4.10;2.20;;;;;;;19.51;44.86;96952.44;10329168;28;20051;-56
2022/12/25 13:24:19;;;;;;;4.20;1.88;;;;;;;19.41;45.68;96926.56;10334509;28;20054;-54
2022/12/25 13:29:39;;;;;;;5.70;2.05;;;;;;;19.41;46.62;96931.97;10334414;28;20054;-54
2022/12/25 13:34:59;;;;;;;4.05;1.70;;;;;;;19.44;46.81;96903.50;10323755;28;20054;-52
2022/12/25 13:40:25;;;;;;;5.70;1.90;;;;;;;19.44;47.04;96893.47;10321665;28;20065;-52
2022/12/25 13:45:53;;;;;;;3.47;2.00;;;;;;;19.45;47.18;96881.56;10293463;28;20055;-54
2022/12/25 13:51:15;;;;;;;4.38;2.03;;;;;;;19.44;47.41;96898.88;10328833;28;20057;-53
2022/12/25 13:56:35;;;;;;;3.45;1.70;;;;;;;19.44;47.69;96881.88;10332749;28;20058;-61
2022/12/25 14:01:56;;;;;;;3.45;1.70;;;;;;;19.44;48.02;96898.88;10332600;28;20065;-53
2022/12/25 14:07:22;;;;;;;3.78;2.08;;;;;;;19.41;46.14;96914.97;10332722;28;20062;-50
2022/12/25 14:12:42;;;;;;;3.95;1.67;;;;;;;19.40;47.48;96924.94;10332079;28;20085;-52
2022/12/25 14:18:02;;;;;;;5.20;1.70;;;;;;;19.39;48.06;96939.59;10332222;28;20058;-58
2022/12/25 14:23:22;;;;;;;3.45;1.85;;;;;;;19.40;48.51;96941.16;10317915;28;20061;-51
2022/12/25 14:28:46;;;;;;;5.95;2.30;;;;;;;19.38;47.97;96943.38;10330974;28;20054;-53
2022/12/25 14:34:10;;;;;;;5.07;2.17;;;;;;;19.37;48.50;96952.63;10308651;28;20491;-49
2022/12/25 14:39:34;;;;;;;6.40;2.40;;;;;;;19.37;48.63;96958.03;10316466;28;20077;-52
2022/12/25 14:44:57;;;;;;;7.10;2.55;;;;;;;19.36;48.62;96951.03;10317338;28;20415;-51
2022/12/25 14:50:40;;;;;;;9.18;3.00;;;;;;;19.34;48.78;96937.81;10331930;28;20054;-52
2022/12/25 14:55:59;;;;;;;10.43;2.95;;;;;;;19.34;48.88;96915.44;10329254;28;20498;-52
2022/12/25 15:01:31;;;;;;;8.38;3.10;;;;;;;19.33;48.89;96921.97;10315432;28;20070;-52
2022/12/25 15:07:00;;;;;;;10.35;3.15;;;;;;;19.32;48.83;96925.75;10330576;28;20109;-52
2022/12/25 15:12:20;;;;;;;8.27;3.20;;;;;;;19.31;48.94;96922.28;10330907;28;20069;-52
2022/12/25 15:17:40;;;;;;;10.55;3.25;;;;;;;19.30;49.08;96904.47;10336477;28;20062;-50
2022/12/25 15:23:00;;;;;;;7.20;2.80;;;;;;;19.30;49.21;96917.19;10324169;28;20066;-51
2022/12/25 15:28:20;;;;;;;10.85;3.72;;;;;;;19.29;49.28;96904.81;10338560;28;20089;-51
2022/12/25 15:33:39;;;;;;;16.50;4.13;;;;;;;19.28;49.47;96885.09;10330890;28;20063;-51
2022/12/25 15:38:59;;;;;;;19.35;3.72;;;;;;;19.27;49.60;96894.31;10336284;28;20058;-52
2022/12/25 15:44:20;;;;;;;12.98;4.35;;;;;;;19.26;49.49;96868.41;10338923;28;20064;-52
2022/12/25 15:49:40;;;;;;;12.52;3.95;;;;;;;19.26;49.63;96881.13;10338384;28;20062;-53
2022/12/25 15:54:59;;;;;;;11.27;4.10;;;;;;;19.24;49.77;96878.75;10338436;28;20065;-52
2022/12/25 16:00:24;;;;;;;14.60;4.20;;;;;;;19.24;49.79;96872.56;10338169;28;20050;-51
2022/12/25 16:05:44;;;;;;;15.38;4.65;;;;;;;19.22;49.89;96886.38;10338087;28;20058;-51
2022/12/25 16:11:04;;;;;;;10.75;3.88;;;;;;;19.22;49.86;96886.38;10348529;28;20058;-52
2022/12/25 16:16:24;;;;;;;13.63;4.03;;;;;;;19.21;50.03;96895.59;10337801;28;20058;-51
2022/12/25 16:21:45;;;;;;;9.80;3.90;;;;;;;19.21;50.02;96889.38;10337690;28;20054;-50
2022/12/25 16:27:06;;;;;;;9.88;3.67;;;;;;;19.20;50.00;96879.72;10336842;28;20058;-53
2022/12/25 16:32:25;;;;;;;10.35;3.85;;;;;;;19.18;50.09;96869.22;10336735;28;20055;-51
2022/12/25 16:37:45;;;;;;;10.10;4.20;;;;;;;19.17;50.15;96860.34;10337027;28;20065;-51
2022/12/25 16:43:04;;;;;;;10.57;4.13;;;;;;;19.16;50.41;96864.13;10336544;28;20779;-51
2022/12/25 16:48:24;;;;;;;8.52;3.35;;;;;;;19.16;50.66;96844.44;10336278;28;20058;-52
2022/12/25 16:53:43;;;;;;;10.85;3.28;;;;;;;19.14;50.72;96842.06;10336139;28;20066;-52
2022/12/25 16:59:03;;;;;;;8.07;3.22;;;;;;;19.15;50.89;96840.13;10348641;28;20058;-52
2022/12/25 17:04:22;;;;;;;8.23;3.63;;;;;;;19.14;51.04;96843.97;10335636;28;20066;-51
2022/12/25 17:09:42;;;;;;;6.40;3.17;;;;;;;19.12;51.07;96846.97;10348433;28;20049;-50
2022/12/25 17:15:03;;;;;;;6.93;3.08;;;;;;;19.11;51.18;96853.50;10334666;28;20422;-52
2022/12/25 17:20:23;;;;;;;5.07;2.72;;;;;;;19.10;51.32;96851.91;10347989;28;20078;-51
2022/12/25 17:25:42;;;;;;;9.88;3.10;;;;;;;19.09;51.12;96839.53;10335103;28;20061;-51
2022/12/25 17:31:06;;;;;;;8.13;3.20;;;;;;;19.09;51.05;96839.53;10333400;28;20503;-51
2022/12/25 17:36:26;;;;;;;7.60;3.38;;;;;;;19.07;50.91;96816.66;10322097;28;20066;-52
2022/12/25 17:41:48;;;;;;;7.75;3.00;;;;;;;19.06;50.95;96796.97;10333200;28;20053;-51
2022/12/25 17:47:08;;;;;;;6.18;3.00;;;;;;;19.05;50.98;96790.00;10333396;28;20529;-53
2022/12/25 17:52:28;;;;;;;7.05;3.28;;;;;;;19.05;51.01;96802.69;10332991;28;20058;-53
2022/12/25 17:57:47;;;;;;;7.55;2.72;;;;;;;19.04;50.95;96807.28;10346533;28;20047;-52
2022/12/25 18:03:07;;;;;;;8.00;3.20;;;;;;;19.03;51.05;96811.09;10332761;28;20078;-52
2022/12/25 18:08:27;;;;;;;7.03;3.30;;;;;;;19.03;50.97;96799.50;10332742;28;20054;-52
2022/12/25 18:13:50;;;;;;;6.63;2.90;;;;;;;19.01;51.16;96778.22;10331927;28;20058;-52
2022/12/25 18:19:12;;;;;;;5.53;2.78;;;;;;;19.00;51.09;96781.25;10331903;28;20522;-51
2022/12/25 18:24:31;;;;;;;6.47;2.75;;;;;;;18.98;51.14;96776.19;10332735;28;20058;-52
2022/12/25 18:29:50;;;;;;;5.38;2.63;;;;;;;18.99;51.05;96764.25;10332129;28;20046;-50
2022/12/25 18:35:11;;;;;;;6.00;2.78;;;;;;;18.97;51.08;96761.09;10339611;28;20058;-52
2022/12/25 18:40:31;;;;;;;6.18;2.75;;;;;;;18.98;51.08;96768.06;10332626;28;20433;-52
2022/12/25 18:45:58;;;;;;;5.50;2.60;;;;;;;18.98;51.12;96778.88;10345478;28;20066;-48
2022/12/25 18:51:17;;;;;;;7.65;2.95;;;;;;;19.00;51.15;96765.06;10336838;28;20062;-52
2022/12/25 18:56:37;;;;;;;7.07;2.33;;;;;;;19.00;51.24;96759.66;10340450;28;20054;-52
2022/12/25 19:01:57;;;;;;;5.15;2.70;;;;;;;19.00;51.18;96738.84;10340214;28;20050;-51
2022/12/25 19:07:16;;;;;;;6.20;2.88;;;;;;;18.99;51.20;96739.94;10339965;28;20058;-52
2022/12/25 19:12:36;;;;;;;6.90;3.00;;;;;;;19.01;51.17;96747.75;10339543;28;20050;-52
2022/12/25 19:17:57;;;;;;;5.28;2.63;;;;;;;19.02;51.17;96755.53;10337902;28;20050;-52
2022/12/25 19:23:16;;;;;;;3.90;2.42;;;;;;;19.03;51.22;96751.69;10339384;28;20110;-52
2022/12/25 19:28:36;;;;;;;5.78;2.80;;;;;;;19.04;51.02;96729.00;10339497;28;20091;-53
2022/12/25 19:33:56;;;;;;;4.53;2.53;;;;;;;19.04;51.17;96718.19;10329113;28;20054;-52
2022/12/25 19:39:16;;;;;;;4.50;2.88;;;;;;;19.06;51.10;96712.47;10322919;28;20113;-52
2022/12/25 19:44:36;;;;;;;4.35;2.67;;;;;;;19.06;51.13;96709.78;10351708;28;20057;-51
2022/12/25 19:49:58;;;;;;;5.07;2.28;;;;;;;19.08;51.06;96719.13;10337680;28;20121;-52
2022/12/25 19:55:20;;;;;;;4.15;2.28;;;;;;;19.09;51.02;96714.50;10338298;28;20142;-52
2022/12/25 20:00:40;;;;;;;5.78;2.65;;;;;;;19.10;51.05;96722.31;10337441;28;20133;-52
2022/12/25 20:06:01;;;;;;;4.93;2.70;;;;;;;19.12;51.01;96719.28;10350897;28;20517;-52
2022/12/25 20:11:22;;;;;;;3.72;2.33;;;;;;;19.13;50.99;96721.66;10337136;28;20050;-51
2022/12/25 20:16:44;;;;;;;4.50;2.35;;;;;;;19.15;50.84;96721.31;10336154;28;20113;-52
2022/12/25 20:22:03;;;;;;;3.58;2.20;;;;;;;19.17;50.95;96717.19;10336893;28;20055;-52
2022/12/25 20:27:22;;;;;;;4.40;2.60;;;;;;;19.18;50.91;96712.59;10337098;28;20058;-50
2022/12/25 20:32:42;;;;;;;4.03;2.33;;;;;;;19.20;50.92;96706.88;10336341;28;20058;-53
2022/12/25 20:38:02;;;;;;;3.67;2.53;;;;;;;19.21;50.95;96706.56;10333468;28;20054;-52
2022/12/25 20:43:21;;;;;;;4.22;2.30;;;;;;;19.22;50.87;96718.91;10336308;28;20054;-52
2022/12/25 20:48:41;;;;;;;3.30;2.08;;;;;;;19.24;50.90;96719.38;10336494;28;20064;-51
2022/12/25 20:54:05;;;;;;;3.15;2.00;;;;;;;19.25;50.81;96718.28;10335906;28;20089;-52
2022/12/25 20:59:25;;;;;;;5.20;2.20;;;;;;;19.27;50.66;96716.06;10320718;28;20062;-50
2022/12/25 21:04:44;;;;;;;6.75;2.97;;;;;;;19.12;45.83;96711.97;10329522;28;20101;-50
2022/12/25 21:10:05;;;;;;;5.00;2.28;;;;;;;19.12;47.84;96703.88;10334697;28;20046;-53
2022/12/25 21:15:24;;;;;;;3.58;2.20;;;;;;;19.19;48.68;96689.88;10284904;28;20051;-52
2022/12/25 21:20:46;;;;;;;3.78;2.35;;;;;;;19.24;48.66;96678.88;10294271;28;20133;-51
2022/12/25 21:26:17;;;;;;;4.55;2.05;;;;;;;19.26;48.94;96702.88;10282516;28;20079;-52
2022/12/25 21:37:15;;;;;;;3.70;2.13;;;;;;;19.29;49.09;96677.94;10292644;28;20057;-52
2022/12/25 21:42:35;;;;;;;4.57;2.30;;;;;;;19.31;49.29;96659.47;10293877;28;20062;-50
2022/12/25 21:47:54;;;;;;;3.88;2.40;;;;;;;19.32;49.47;96685.34;10293875;28;20062;-51
2022/12/25 21:53:15;;;;;;;3.30;2.20;;;;;;;19.33;49.68;96681.56;10306015;28;20066;-52
2022/12/25 21:58:35;;;;;;;2.90;2.10;;;;;;;19.34;49.82;96686.59;10305847;28;20047;-52
2022/12/25 22:03:56;;;;;;;2.67;2.08;;;;;;;19.34;49.93;96685.81;10302405;28;20051;-52
2022/12/25 22:09:15;;;;;;;3.05;1.83;;;;;;;19.34;50.26;96678.50;10284333;28;20092;-48
2022/12/25 22:14:51;;;;;;;3.05;2.15;;;;;;;19.34;50.19;96669.63;10262598;28;20059;-50
2022/12/25 22:20:20;;;;;;;3.70;2.40;;;;;;;19.35;50.16;96679.31;10259369;28;20052;-51
2022/12/25 22:25:40;;;;;;;3.53;2.00;;;;;;;19.34;50.18;96669.63;10261189;28;20122;-51
2022/12/25 22:31:02;;;;;;;2.80;2.08;;;;;;;19.34;50.13;96672.31;10342000;28;20102;-51
2022/12/25 22:36:22;;;;;;;3.22;2.13;;;;;;;19.33;50.13;96676.94;10310241;28;20058;-51
2022/12/25 22:41:41;;;;;;;3.55;2.15;;;;;;;19.32;50.18;96686.16;10339552;28;20105;-52
2022/12/25 22:47:01;;;;;;;3.30;1.92;;;;;;;19.32;50.20;96690.75;10319113;28;20082;-50
2022/12/25 22:52:22;;;;;;;3.10;2.00;;;;;;;19.32;50.31;96691.53;10329010;28;20058;-51
2022/12/25 22:57:41;;;;;;;3.72;2.08;;;;;;;19.31;50.22;96694.59;10331085;28;20514;-49
2022/12/25 23:03:01;;;;;;;3.83;1.85;;;;;;;19.31;50.22;96711.59;10330864;28;20564;-51
2022/12/25 23:08:21;;;;;;;2.38;1.90;;;;;;;19.30;50.24;96707.28;10305084;28;20058;-51
2022/12/25 23:30:35;;;;;;;3.83;1.73;;;;;;;19.29;50.27;96707.63;10331030;28;20055;-51
2022/12/25 23:35:54;;;;;;;4.00;2.00;;;;;;;19.29;50.28;96702.22;10293129;28;20555;-53
2022/12/25 23:41:13;;;;;;;3.28;1.95;;;;;;;19.27;50.34;96707.94;10327887;28;20066;-50
2022/12/25 23:46:34;;;;;;;1.98;1.67;;;;;;;19.28;50.30;96716.84;10310697;28;20422;-51
2022/12/25 23:51:55;;;;;;;2.35;1.85;;;;;;;19.26;50.42;96714.44;10338160;28;20053;-51
2022/12/25 23:57:15;;;;;;;2.83;1.80;;;;;;;19.25;50.34;96698.56;10336896;28;20122;-52
